weather station
Area: 11014 km2
The highest point: Tok (865 m.s.l.)
Total stations: 54
Stations online: 50
Stations offline: 4
Current weather
15°C

Meteorological map - weather stations in Středočeský

. The meteorological maps show weather information from WARIO weather stations

Weather stations Středočeský

 UpdatesNameStatusTemperatureHumidityWind speedWind direction
5.8.2021 11:01Barochov16.0 °C84.4 %2.0 m/s SW
5.8.2021 11:01Beroun16.6 °C80.4 %0.8 m/s SE
5.8.2021 11:01Bořanovice17.4 °C85.7 %0.9 m/s W
5.8.2021 11:01Jílové u Prahy - Borek17.3 °C90.3 %0.8 m/s N
5.8.2021 11:01Břešťany18.3 °C65.5 %1.3 m/s N
5.8.2021 11:01Brandýs nad Labem19.0 °C80.6 %0.7 m/s E
14.7.2021 00:00Rakovník16.2 °C97.8 %0.0 m/s SW
5.8.2021 11:01Králův Dvůr16.7 °C85.8 %0.7 m/s W
5.8.2021 11:01Chotětov18.9 °C75.4 %0.0 m/s SE
5.8.2021 11:01Dobřejovice15.5 °C81.3 %1.1 m/s E
5.8.2021 11:01Dolní Břežany15.4 °C83.3 %1.3 m/s SE
5.8.2021 11:01Dolní Jirčany15.9 °C99.0 %1.0 m/s NW
5.8.2021 11:01Holubice16.4 °C92.9 %1.4 m/s SE
5.8.2021 11:01Hostín u Vojkovic17.9 °C89.1 %1.2 m/s N
5.8.2021 11:01Hovorčovice17.8 °C100.0 %0.8 m/s NW
5.8.2021 11:01Sedlčany15.7 °C96.2 %0.0 m/s NW
5.8.2021 11:01Kojetice20.2 °C100.0 %0.0 m/s NE
5.8.2021 11:01Kostelec nad Černými lesy14.8 °C87.3 %1.2 m/s NW
5.8.2021 11:01Krásná Hora nad Vltavou15.1 °C100.0 %0.0 m/s NW
5.8.2021 11:02Květnice16.8 °C92.4 %1.1 m/s N
5.8.2021 11:01Libeř17.0 °C88.6 %0.0 m/s NW
5.8.2021 11:02Zeleneč17.1 °C89.8 %1.0 m/s NW
5.8.2021 11:01Zdice16.7 °C89.0 %0.6 m/s N
5.8.2021 11:01Krušovice16.0 °C97.5 %0.9 m/s NW
5.8.2021 11:01Jince16.0 °C93.1 %1.8 m/s NE
5.8.2021 11:01Dolní Jirčany15.9 °C96.7 %0.7 m/s E
5.8.2021 11:01Cetyně13.6 °C91.4 %2.0 m/s NE
5.8.2021 11:01Vysoký Újezd15.3 °C83.2 %1.6 m/s N
5.8.2021 11:01Srby17.5 °C92.2 %1.0 m/s NW
5.8.2021 11:02Kralupy nad Vltavou18.1 °C82.3 %1.0 m/s W
5.8.2021 11:01Velvary18.6 °C74.8 %1.7 m/s NW
5.8.2021 11:01Mladá Boleslav16.5 °C98.9 %0.0 m/s SW
29.6.2021 21:01Milín13.3 °C98.2 %3.8 m/s NE
5.8.2021 11:01Líbeznice16.3 °C80.9 %1.3 m/s NE
5.8.2021 11:02Mnichovice15.9 °C75.8 %2.0 m/s N
5.8.2021 11:02Mšecké Žehrovice-40.0 °C %1.2 m/s NE
5.8.2021 11:02Ostrá16.9 °C80.4 %1.5 m/s SE
3.8.2021 16:21Petrovice22.0 °C55.0 %1.6 m/s SW
5.8.2021 11:01Suchodol14.8 °C100.0 %1.0 m/s N
5.8.2021 11:02Říčany15.3 °C85.1 %1.3 m/s N
5.8.2021 11:01Semice17.4 °C96.3 %1.5 m/s NW
5.8.2021 11:02Slaný18.0 °C94.7 %0.7 m/s W
31.7.2021 17:05Višňová22.8 °C45.1 %1.7 m/s NE
5.8.2021 11:01Svojetice14.2 °C100.0 %1.3 m/s N
5.8.2021 11:01Roztoky17.2 °C89.3 %0.6 m/s NE
5.8.2021 11:01Toušice16.5 °C94.2 %0.0 m/s W
5.8.2021 11:01Třebsko13.9 °C98.7 %1.9 m/s NE
5.8.2021 11:01Unhošť17.3 °C77.2 %0.0 m/s SW
5.8.2021 11:01Vrbčany17.4 °C98.1 %1.0 m/s E
5.8.2021 11:01Všešímy15.0 °C87.1 %1.2 m/s SE
5.8.2021 11:01Všetaty-5.2 °C %1.5 m/s NW
5.8.2021 11:02Zaječice15.8 °C84.4 %1.7 m/s NW
5.8.2021 11:01Zibohlavy °C %0.0 m/s NW
5.8.2021 11:01Divišov14.2 °C100.0 %1.8 m/s SW
Email notifications
Enter your email address to subscribe to notifications about news at warioweather.com. Your email address will not be used for any purpose other than sending these emails and will not be provided to any third party. The subscription can be ended at any time.
All data are only indicative. The portal administrator has no responsibility for potentially incorrect data and related consequences. Publishing or further sharing of content from www.warioweather.com is only allowed with written consent from WANET s.r.o.